Terminal Aerodrome Forecast
Issued by NWS

Home | Current Version | Previous Version | Text Only | Print | Product List | Glossary On
Versions: 1 2 3 4 5 6 7 8 9 10 11 12 13 14 15 16 17 18 19 20 21 22 23
000
FTUS43 KDLH 251737
TAFHIB
TAF
KHIB 251737Z 2518/2618 27010G16KT P6SM VCSH SCT030 BKN035
      TEMPO 2518/2521 6SM -SHRA BKN030
     FM260100 30007KT P6SM SCT015 BKN040
     FM260700 VRB03KT 3SM BR SCT060
      TEMPO 2608/2612 1/2SM FG BKN008
     FM261500 24004KT P6SM FEW025=

USA.gov is the U.S. government's official web portal to all federal, state and local government web resources and services.